Time;durP1;ratioP1;P1;durP2;ratioP2;P2;SDS_P1;SDS_P2;PMS_P1;PMS_P2;Temp;Humidity;BMP_temperature;BMP_pressure;BME280_temperature;BME280_humidity;BME280_pressure;Samples;Min_cycle;Max_cycle;Signal;HPM_P1;HPM_P2
2021/11/09 00:00:51;;;;;;;5.65;4.47;;;;;;;6.82;68.83;99906.54;1626376;87;22195;-59
2021/11/09 00:03:18;;;;;;;6.35;3.72;;;;;;;6.83;68.56;99905.62;1630245;85;21509;-59
2021/11/09 00:05:53;;;;;;;4.12;3.50;;;;;;;6.84;69.01;99904.75;1635825;87;21655;-59
2021/11/09 00:08:22;;;;;;;6.92;4.17;;;;;;;6.95;68.89;99901.43;1631091;85;21093;-58
2021/11/09 00:10:50;;;;;;;6.58;3.92;;;;;;;6.96;68.73;99892.67;1636568;86;21084;-58
2021/11/09 00:13:18;;;;;;;4.97;3.85;;;;;;;6.95;68.69;99897.94;1631031;86;21810;-59
2021/11/09 00:15:44;;;;;;;5.67;3.57;;;;;;;6.94;68.69;99901.00;1630866;87;21455;-58
2021/11/09 00:18:11;;;;;;;6.20;4.25;;;;;;;6.88;69.12;99904.23;1631190;87;21073;-58
2021/11/09 00:20:39;;;;;;;4.60;3.83;;;;;;;6.84;69.07;99899.52;1631334;85;21558;-59
2021/11/09 00:23:06;;;;;;;3.87;3.47;;;;;;;6.83;69.33;99905.62;1632821;86;21590;-58
2021/11/09 00:25:33;;;;;;;6.78;3.58;;;;;;;6.84;69.89;99903.44;1632168;86;22143;-59
2021/11/09 00:28:00;;;;;;;5.37;3.85;;;;;;;6.99;69.47;99910.06;1628058;86;21508;-59
2021/11/09 00:30:30;;;;;;;7.42;4.17;;;;;;;7.00;69.21;99909.15;1633777;86;21514;-60
2021/11/09 00:32:57;;;;;;;5.35;3.92;;;;;;;7.00;69.23;99907.39;1620285;87;21530;-58
2021/11/09 00:35:27;;;;;;;5.80;4.05;;;;;;;6.97;69.30;99902.25;1627421;87;21514;-58
2021/11/09 00:37:53;;;;;;;9.35;4.03;;;;;;;6.90;69.57;99915.50;1636007;87;21669;-59
2021/11/09 00:40:23;;;;;;;10.13;4.12;;;;;;;6.88;69.67;99910.77;1636721;86;21656;-58
2021/11/09 00:42:49;;;;;;;6.42;3.60;;;;;;;6.84;69.97;99907.36;1642823;85;21058;-60
2021/11/09 00:45:16;;;;;;;4.40;3.98;;;;;;;6.97;70.00;99904.02;1634909;85;21558;-59
2021/11/09 00:47:43;;;;;;;7.03;4.20;;;;;;;7.01;69.78;99913.50;1640787;86;21561;-59
2021/11/09 00:50:11;;;;;;;5.87;4.13;;;;;;;6.97;69.86;99912.70;1644196;86;21799;-59
2021/11/09 00:52:38;;;;;;;7.58;4.83;;;;;;;6.97;69.61;99899.64;1636295;85;21029;-59
2021/11/09 00:55:06;;;;;;;7.25;4.70;;;;;;;6.90;69.86;99899.83;1638038;86;21581;-59
2021/11/09 00:57:33;;;;;;;4.45;4.05;;;;;;;6.86;69.85;99899.48;1643149;86;21023;-59
2021/11/09 01:00:00;;;;;;;6.78;3.92;;;;;;;6.76;70.06;99907.96;1632294;86;21604;-59
2021/11/09 01:02:26;;;;;;;7.60;3.55;;;;;;;6.72;70.27;99907.17;1638229;86;21851;-59
2021/11/09 01:07:16;;;;;;;7.65;4.15;;;;;;;6.82;69.79;99919.15;1783357;79;23098;-59
2021/11/09 01:09:43;;;;;;;5.37;4.20;;;;;;;6.72;69.82;99920.69;1760786;80;21486;-58
2021/11/09 01:12:11;;;;;;;6.83;4.40;;;;;;;6.67;69.80;99917.31;1770829;80;21491;-58
2021/11/09 01:14:38;;;;;;;4.83;4.05;;;;;;;6.62;69.70;99919.59;1760063;80;21534;-58
2021/11/09 01:17:07;;;;;;;5.72;4.35;;;;;;;6.53;69.99;99922.86;1755413;80;21483;-58
2021/11/09 01:19:33;;;;;;;5.37;4.53;;;;;;;6.46;70.14;99924.76;1767415;80;21494;-59
2021/11/09 01:22:02;;;;;;;8.98;4.58;;;;;;;6.38;70.26;99922.28;1763981;80;21435;-58
2021/11/09 01:24:28;;;;;;;7.53;4.40;;;;;;;6.35;70.61;99928.05;1754511;80;21791;-58
2021/11/09 01:26:55;;;;;;;7.30;4.53;;;;;;;6.45;70.77;99933.47;1762626;80;21546;-57
2021/11/09 01:29:21;;;;;;;5.05;4.30;;;;;;;6.49;70.87;99934.27;1762371;80;21557;-59
2021/11/09 01:31:49;;;;;;;8.70;5.50;;;;;;;6.48;71.11;99935.15;1766171;80;21503;-57
2021/11/09 01:34:15;;;;;;;6.95;4.67;;;;;;;6.48;71.28;99941.25;1763471;80;21554;-57
2021/11/09 01:36:42;;;;;;;4.80;4.40;;;;;;;6.48;71.48;99936.03;1751106;80;21732;-58
2021/11/09 01:39:09;;;;;;;5.87;4.50;;;;;;;6.48;71.51;99948.21;1766803;80;21549;-57
2021/11/09 01:41:35;;;;;;;6.30;4.33;;;;;;;6.45;72.00;99941.77;1765879;80;21612;-58
2021/11/09 01:44:03;;;;;;;5.58;3.60;;;;;;;6.49;72.09;99953.86;1762699;80;21451;-58
2021/11/09 01:46:30;;;;;;;7.65;3.72;;;;;;;6.60;71.98;99949.27;1754652;80;26873;-58
2021/11/09 01:48:56;;;;;;;5.58;4.17;;;;;;;6.66;71.83;99943.90;1777388;80;21832;-58
2021/11/09 01:51:23;;;;;;;7.42;3.92;;;;;;;6.68;71.68;99950.41;1762789;80;21392;-58
2021/11/09 01:53:53;;;;;;;5.03;4.15;;;;;;;6.65;71.83;99949.16;1762086;80;21601;-58
2021/11/09 01:56:22;;;;;;;4.70;3.40;;;;;;;6.62;71.82;99947.02;1757593;80;21541;-58
2021/11/09 01:58:49;;;;;;;5.05;3.77;;;;;;;6.57;71.95;99949.33;1756532;80;21560;-59
2021/11/09 02:01:17;;;;;;;4.00;3.62;;;;;;;6.54;72.22;99951.56;1722559;81;21723;-58
2021/11/09 02:03:47;;;;;;;4.30;3.35;;;;;;;6.57;72.50;99963.27;1727789;81;20983;-58
2021/11/09 02:06:14;;;;;;;6.00;3.90;;;;;;;6.69;72.30;99966.52;1703758;81;21508;-59
2021/11/09 02:08:42;;;;;;;5.85;3.67;;;;;;;6.73;72.10;99975.55;1703346;83;21555;-59
2021/11/09 02:11:09;;;;;;;6.53;4.30;;;;;;;6.72;72.01;99972.95;1697576;83;21549;-59
2021/11/09 02:13:37;;;;;;;5.65;4.17;;;;;;;6.69;71.90;99975.20;1703744;83;21602;-59
2021/11/09 02:16:04;;;;;;;6.67;3.90;;;;;;;6.64;72.07;99978.35;1702599;83;21495;-59
2021/11/09 02:18:31;;;;;;;6.00;4.15;;;;;;;6.58;72.37;99976.73;1751378;80;21506;-59
2021/11/09 02:21:11;;;;;;;6.45;4.08;;;;;;;6.55;72.53;99982.46;1750395;80;21537;-59
2021/11/09 02:23:43;;;;;;;5.60;3.45;;;;;;;6.57;72.88;99985.48;1692550;83;21522;-59
2021/11/09 02:26:12;;;;;;;5.08;3.40;;;;;;;6.61;72.91;99985.82;1762503;80;21781;-60
2021/11/09 02:28:40;;;;;;;3.70;3.40;;;;;;;6.63;73.06;99994.48;1769257;80;21542;-57
2021/11/09 02:31:07;;;;;;;4.90;3.30;;;;;;;6.64;73.25;99994.03;1755283;80;21510;-58
2021/11/09 02:33:36;;;;;;;6.75;2.95;;;;;;;6.62;73.09;99994.05;1760690;80;21408;-59
2021/11/09 02:36:02;;;;;;;4.17;2.90;;;;;;;6.48;72.94;99996.11;1752164;80;21506;-59
2021/11/09 02:38:29;;;;;;;3.15;2.83;;;;;;;6.43;73.20;99995.34;1752431;80;21716;-59
2021/11/09 02:40:57;;;;;;;3.22;2.70;;;;;;;6.40;73.64;99996.69;1760026;80;21412;-59
2021/11/09 02:43:25;;;;;;;5.45;3.12;;;;;;;6.51;73.86;99994.72;1759214;80;21499;-59
2021/11/09 02:48:44;;;;;;;2.70;2.50;;;;;;;6.39;73.59;99998.45;1756488;80;21506;-59
2021/11/09 02:51:15;;;;;;;2.37;2.12;;;;;;;6.31;73.78;100002.98;1756546;80;21911;-59
2021/11/09 02:53:45;;;;;;;2.40;2.20;;;;;;;6.22;73.62;100013.14;1754734;80;21486;-58
2021/11/09 02:59:05;;;;;;;4.25;2.00;;;;;;;6.11;73.52;100012.48;1745437;80;21520;-59
2021/11/09 03:04:10;;;;;;;3.75;2.15;;;;;;;6.13;73.60;100017.23;1761308;80;21807;-59
2021/11/09 03:06:46;;;;;;;2.92;2.35;;;;;;;6.09;73.81;100026.02;1761589;80;21565;-59
2021/11/09 03:09:24;;;;;;;2.47;2.27;;;;;;;6.04;73.72;100022.63;1754949;80;21554;-59
2021/11/09 03:11:54;;;;;;;3.22;2.20;;;;;;;5.98;73.83;100029.27;1750022;80;21557;-60
2021/11/09 03:14:14;;;;;;;1.98;1.65;;;;;;;5.99;74.08;100034.88;1764366;80;21455;-59
2021/11/09 03:16:43;;;;;;;1.87;1.75;;;;;;;6.05;74.12;100029.58;1749595;80;21735;-59
2021/11/09 03:46:43;;;;;;;1.55;1.40;;;;;;;5.49;73.61;100059.61;1763287;79;21632;-59
2021/11/09 03:49:11;;;;;;;1.57;1.37;;;;;;;5.39;73.63;100064.11;1758297;80;20989;-60
2021/11/09 03:51:37;;;;;;;1.65;1.30;;;;;;;5.33;73.83;100068.11;1749108;80;21522;-60
2021/11/09 03:54:09;;;;;;;2.77;1.75;;;;;;;5.31;74.07;100075.06;1764008;80;21076;-60
2021/11/09 03:59:08;;;;;;;1.75;0.90;;;;;;;5.44;73.01;100075.34;1754484;80;21538;-60
2021/11/09 04:01:40;;;;;;;1.35;0.93;;;;;;;5.40;72.80;100071.02;1753506;80;21618;-60
2021/11/09 04:06:37;;;;;;;0.85;0.85;;;;;;;5.32;72.62;100085.08;1752757;80;21527;-59
2021/11/09 04:16:53;;;;;;;3.27;0.95;;;;;;;5.32;71.85;100083.77;1737930;80;21439;-60
2021/11/09 04:22:53;;;;;;;0.80;0.80;;;;;;;5.19;71.58;100091.75;1741497;80;21525;-59
2021/11/09 04:25:06;;;;;;;1.92;0.93;;;;;;;5.17;71.60;100086.15;1748805;80;22146;-60
2021/11/09 04:27:24;;;;;;;2.75;0.95;;;;;;;5.13;71.48;100094.45;1747082;80;21432;-61
2021/11/09 05:09:41;;;;;;;4.22;3.83;;;;;;;3.80;73.25;100150.90;1725165;82;21582;-59
2021/11/09 05:12:07;;;;;;;6.53;4.00;;;;;;;3.73;73.55;100156.16;1731206;81;21539;-59
2021/11/09 05:14:34;;;;;;;3.58;3.17;;;;;;;3.66;73.73;100155.36;1736934;81;21783;-59
2021/11/09 05:17:01;;;;;;;3.30;2.27;;;;;;;3.67;73.89;100168.77;1733280;81;21587;-59
2021/11/09 05:19:28;;;;;;;3.27;2.33;;;;;;;3.70;73.98;100161.81;1720105;81;21478;-59
2021/11/09 05:21:55;;;;;;;2.25;1.95;;;;;;;3.68;73.90;100161.41;1728104;81;21311;-59
2021/11/09 05:24:22;;;;;;;3.65;1.70;;;;;;;3.60;73.97;100169.26;1735632;81;21509;-59
2021/11/09 05:26:49;;;;;;;1.30;1.20;;;;;;;3.51;73.93;100174.06;1692503;82;21816;-59
2021/11/09 05:29:16;;;;;;;1.75;1.45;;;;;;;3.42;74.00;100178.45;1691925;83;21531;-59
2021/11/09 05:31:43;;;;;;;3.40;1.60;;;;;;;3.34;73.98;100186.29;1744464;81;21451;-59
2021/11/09 05:34:12;;;;;;;1.22;1.12;;;;;;;3.29;73.87;100195.84;1734807;81;21374;-59
2021/11/09 05:36:41;;;;;;;3.00;1.77;;;;;;;3.27;74.60;100201.03;1727143;80;21655;-60
2021/11/09 05:39:19;;;;;;;1.67;1.50;;;;;;;3.30;74.26;100202.33;1726924;81;21968;-60
2021/11/09 05:41:46;;;;;;;1.55;1.45;;;;;;;3.27;74.17;100206.67;1738578;81;21373;-59
2021/11/09 05:44:13;;;;;;;4.22;2.83;;;;;;;3.21;74.27;100217.10;1745870;81;21423;-60
2021/11/09 05:46:40;;;;;;;7.63;4.33;;;;;;;3.17;74.36;100222.74;1728533;81;21609;-60
2021/11/09 05:49:07;;;;;;;9.80;3.52;;;;;;;3.12;74.34;100227.08;1728312;81;22123;-60
2021/11/09 05:51:34;;;;;;;5.70;2.65;;;;;;;3.07;74.36;100231.01;1740617;81;21809;-60
2021/11/09 05:54:00;;;;;;;9.23;2.65;;;;;;;3.12;74.59;100233.14;1734524;81;21546;-59
2021/11/09 05:56:28;;;;;;;7.70;3.08;;;;;;;3.21;74.62;100232.70;1729954;81;20984;-60
2021/11/09 05:58:55;;;;;;;8.03;4.15;;;;;;;3.25;74.64;100242.20;1731716;81;21491;-59
2021/11/09 06:01:21;;;;;;;6.50;3.80;;;;;;;3.28;74.50;100240.91;1737291;80;21519;-59
2021/11/09 06:03:49;;;;;;;5.22;3.00;;;;;;;3.28;74.57;100240.91;1688948;83;21638;-60
2021/11/09 06:06:15;;;;;;;5.05;3.50;;;;;;;3.30;74.63;100246.97;1689096;83;21544;-58
2021/11/09 06:08:42;;;;;;;4.15;2.95;;;;;;;3.35;74.36;100246.48;1681625;83;21597;-56
2021/11/09 06:11:09;;;;;;;3.45;2.62;;;;;;;3.41;74.40;100258.19;1692855;83;21628;-56
2021/11/09 06:13:37;;;;;;;3.75;2.40;;;;;;;3.58;73.94;100260.72;1738012;81;21522;-56
2021/11/09 06:16:04;;;;;;;5.10;2.60;;;;;;;3.60;73.71;100260.69;1736388;81;21789;-58
2021/11/09 06:18:31;;;;;;;2.85;2.55;;;;;;;3.61;73.54;100265.88;1739983;81;21571;-57
2021/11/09 06:20:58;;;;;;;3.40;2.55;;;;;;;3.63;73.25;100269.78;1731784;81;21512;-56
2021/11/09 06:23:24;;;;;;;3.45;2.87;;;;;;;3.64;73.49;100274.98;1736692;81;21637;-57
2021/11/09 06:25:51;;;;;;;3.67;2.90;;;;;;;3.63;72.62;100278.89;1737055;81;21047;-57
2021/11/09 06:28:20;;;;;;;2.50;2.30;;;;;;;3.63;73.03;100281.48;1728555;81;21806;-56
2021/11/09 06:30:48;;;;;;;2.40;2.10;;;;;;;3.68;71.72;100282.34;1741641;81;21569;-56
2021/11/09 06:33:15;;;;;;;2.67;2.47;;;;;;;3.84;71.89;100293.52;1703383;83;20943;-56
2021/11/09 06:35:42;;;;;;;3.67;2.57;;;;;;;3.90;71.80;100296.98;1686874;83;21497;-56
2021/11/09 06:38:09;;;;;;;3.30;2.27;;;;;;;3.89;71.46;100300.44;1686099;83;21352;-57
2021/11/09 06:40:36;;;;;;;3.77;2.12;;;;;;;3.89;71.12;100302.18;1733898;81;21768;-56
2021/11/09 06:43:03;;;;;;;3.02;1.80;;;;;;;3.78;71.09;100304.83;1732707;81;21065;-56
2021/11/09 06:45:30;;;;;;;3.10;2.00;;;;;;;3.76;70.47;100304.41;1735156;81;21519;-59
2021/11/09 06:47:56;;;;;;;2.17;1.75;;;;;;;3.63;69.32;100309.65;1732658;81;21528;-59
2021/11/09 06:50:23;;;;;;;2.00;1.85;;;;;;;3.53;70.04;100309.71;1734287;80;21543;-55
2021/11/09 06:52:50;;;;;;;3.20;2.10;;;;;;;3.50;70.24;100320.55;1734824;81;22160;-56
2021/11/09 06:55:18;;;;;;;3.42;2.05;;;;;;;3.53;70.45;100325.31;1728719;81;21547;-55
2021/11/09 06:57:44;;;;;;;4.62;2.58;;;;;;;3.56;70.26;100323.98;1734949;80;21583;-55
2021/11/09 07:00:15;;;;;;;2.50;2.10;;;;;;;3.53;70.51;100343.07;1733134;80;21590;-56
2021/11/09 07:02:43;;;;;;;2.37;1.82;;;;;;;3.51;70.36;100343.06;1729077;81;21657;-54
2021/11/09 07:05:10;;;;;;;2.72;1.87;;;;;;;3.42;70.09;100344.39;1726857;81;21787;-55
2021/11/09 07:07:37;;;;;;;1.80;1.70;;;;;;;3.37;69.81;100346.57;1676919;83;22589;-55
2021/11/09 07:10:05;;;;;;;1.90;1.75;;;;;;;3.26;69.94;100354.41;1682606;83;21536;-55
2021/11/09 07:12:35;;;;;;;1.98;1.77;;;;;;;3.24;70.18;100350.92;1730122;81;21520;-54
2021/11/09 07:15:04;;;;;;;3.60;1.98;;;;;;;3.27;70.12;100366.08;1740268;81;21017;-55
2021/11/09 07:17:31;;;;;;;;;;;;;;;3.36;70.09;100366.95;1737970;81;21753;-56
2021/11/09 07:19:59;;;;;;;3.25;2.08;;;;;;;3.44;69.60;100372.98;1742246;81;20476;-57
2021/11/09 07:22:26;;;;;;;2.25;2.05;;;;;;;3.47;70.02;100376.89;1735864;81;21432;-56
2021/11/09 07:24:53;;;;;;;2.37;2.00;;;;;;;3.44;69.15;100379.05;1731873;81;21530;-60
2021/11/09 07:27:19;;;;;;;1.75;1.65;;;;;;;3.37;69.31;100384.27;1733693;80;21606;-55
2021/11/09 07:29:49;;;;;;;1.95;1.77;;;;;;;3.35;67.88;100388.60;1733098;81;21756;-56
2021/11/09 07:32:17;;;;;;;1.50;1.40;;;;;;;3.31;67.94;100395.12;1738793;81;21607;-55
2021/11/09 07:34:44;;;;;;;2.22;1.20;;;;;;;3.34;68.09;100398.14;1737291;81;27178;-56
2021/11/09 07:37:11;;;;;;;3.22;1.60;;;;;;;3.34;67.92;100397.28;1733638;81;21567;-56
2021/11/09 07:39:39;;;;;;;;;;;;;;;3.39;67.72;100399.42;1736960;81;21475;-55
2021/11/09 07:42:06;;;;;;;2.30;2.10;;;;;;;3.42;67.91;100399.43;1747390;81;22113;-55
2021/11/09 07:44:34;;;;;;;10.32;3.37;;;;;;;3.42;67.91;100402.88;1685179;83;21558;-56
2021/11/09 07:47:01;;;;;;;2.70;2.03;;;;;;;3.48;67.88;100400.71;1699699;82;21548;-55
2021/11/09 07:49:29;;;;;;;2.98;2.08;;;;;;;3.51;67.79;100407.22;1703192;83;21485;-55
2021/11/09 07:51:56;;;;;;;2.42;1.57;;;;;;;3.64;66.36;100407.63;1691011;83;21563;-58
2021/11/09 07:54:27;;;;;;;2.27;1.97;;;;;;;3.60;66.53;100405.02;1691691;83;21939;-54
2021/11/09 07:57:01;;;;;;;1.37;1.27;;;;;;;3.57;66.69;100416.73;1685382;82;21499;-55
2021/11/09 08:00:21;;;;;;;1.80;1.60;;;;;;;3.49;65.60;100418.91;1684405;84;20963;-55
2021/11/09 08:02:12;;;;;;;2.75;1.90;;;;;;;3.41;66.07;100423.68;1670198;84;21511;-55
2021/11/09 08:04:56;;;;;;;3.85;1.87;;;;;;;3.47;66.18;100426.30;1652864;84;21569;-56
2021/11/09 08:07:30;;;;;;;2.20;1.77;;;;;;;3.51;66.01;100432.78;1674171;84;21957;-55
2021/11/09 08:09:54;;;;;;;2.67;1.90;;;;;;;3.57;65.56;100441.00;1694677;82;21486;-56
2021/11/09 08:12:21;;;;;;;4.00;1.60;;;;;;;3.64;65.67;100444.47;1700918;82;21491;-56
2021/11/09 08:14:48;;;;;;;2.00;1.60;;;;;;;3.70;65.27;100446.61;1695209;82;21614;-55
2021/11/09 08:17:15;;;;;;;1.70;1.40;;;;;;;3.74;64.42;100443.58;1696318;83;21503;-55
2021/11/09 08:19:43;;;;;;;2.10;1.60;;;;;;;3.64;64.64;100451.84;1693735;82;21826;-56
2021/11/09 08:22:10;;;;;;;3.65;1.72;;;;;;;3.59;64.97;100455.31;1689625;84;21432;-55
2021/11/09 08:24:36;;;;;;;2.20;2.00;;;;;;;3.57;65.30;100463.11;1691611;84;21496;-54
2021/11/09 08:27:11;;;;;;;3.50;2.33;;;;;;;3.63;65.59;100471.34;1682092;84;21132;-55
2021/11/09 08:29:33;;;;;;;1.98;1.80;;;;;;;3.62;65.68;100469.62;1686399;83;21518;-55
2021/11/09 08:32:00;;;;;;;2.15;1.50;;;;;;;3.66;65.31;100475.25;1675067;84;21848;-55
2021/11/09 08:34:29;;;;;;;1.55;1.45;;;;;;;3.83;64.77;100477.81;1687447;83;21664;-56
2021/11/09 08:36:56;;;;;;;1.32;1.22;;;;;;;3.87;64.21;100475.19;1682819;83;21543;-55
2021/11/09 08:39:31;;;;;;;1.43;1.30;;;;;;;4.00;63.31;100479.94;1690103;84;21520;-55
2021/11/09 08:42:18;;;;;;;1.50;1.20;;;;;;;4.12;62.52;100477.73;1687238;84;21557;-55
2021/11/09 08:44:22;;;;;;;1.50;1.40;;;;;;;4.21;62.46;100469.89;1674826;84;21790;-55
2021/11/09 08:46:51;;;;;;;1.75;1.55;;;;;;;4.30;62.20;100475.52;1691147;83;21559;-55
2021/11/09 08:49:19;;;;;;;1.82;1.45;;;;;;;4.37;61.08;100476.34;1679227;84;21617;-55
2021/11/09 08:51:50;;;;;;;1.87;1.52;;;;;;;4.32;60.68;100476.38;1700815;83;21464;-55
2021/11/09 08:54:37;;;;;;;2.02;1.67;;;;;;;4.20;60.95;100488.11;1671324;84;21416;-55
2021/11/09 08:57:10;;;;;;;2.83;1.30;;;;;;;4.16;61.45;100489.00;1671088;84;22157;-55
2021/11/09 09:05:06;;;;;;;1.62;1.37;;;;;;;4.10;60.89;100492.48;1699960;83;21480;-55
2021/11/09 09:07:34;;;;;;;1.80;1.40;;;;;;;4.03;61.47;100490.77;1686715;83;21580;-55
2021/11/09 09:10:01;;;;;;;1.62;1.27;;;;;;;4.00;61.58;100492.09;1691850;83;21754;-56
2021/11/09 09:12:30;;;;;;;1.77;1.30;;;;;;;4.02;61.99;100496.41;1677134;84;21492;-55
2021/11/09 09:14:57;;;;;;;6.50;1.40;;;;;;;4.02;61.56;100500.77;1689321;84;21547;-57
2021/11/09 09:17:25;;;;;;;1.55;1.30;;;;;;;4.03;61.93;100511.58;1692501;83;21625;-57
2021/11/09 09:19:59;;;;;;;2.33;1.32;;;;;;;4.02;61.41;100512.03;1690029;83;21086;-56
2021/11/09 09:22:29;;;;;;;1.40;1.12;;;;;;;3.47;61.25;100448.39;1689293;83;21840;-56
2021/11/09 09:29:57;;;;;;;2.15;1.30;;;;;;;3.89;61.14;100531.99;1682688;84;21591;-57
2021/11/09 09:56:58;;;;;;;1.87;1.32;;;;;;;4.40;55.94;100564.88;1693315;82;21630;-55
2021/11/09 09:59:30;;;;;;;1.25;1.15;;;;;;;4.63;56.99;100563.08;1678367;84;21564;-56
2021/11/09 10:02:24;;;;;;;1.12;1.02;;;;;;;4.81;55.74;100567.77;1697408;82;21487;-55
2021/11/09 10:05:11;;;;;;;1.62;1.30;;;;;;;5.22;55.30;100555.81;1699308;82;21531;-55
2021/11/09 10:07:41;;;;;;;3.00;1.30;;;;;;;5.83;54.39;100554.92;1691369;82;21472;-55
2021/11/09 10:10:16;;;;;;;1.72;1.17;;;;;;;6.31;53.31;100556.67;1712173;82;21511;-55
2021/11/09 10:12:56;;;;;;;2.17;1.40;;;;;;;6.72;52.50;100553.99;1715738;82;21523;-55
2021/11/09 10:15:26;;;;;;;1.52;1.20;;;;;;;7.06;50.11;100551.39;1711501;82;21725;-56
2021/11/09 10:17:53;;;;;;;1.82;1.42;;;;;;;7.14;49.31;100554.33;1686608;82;21599;-56
2021/11/09 10:20:24;;;;;;;1.47;1.07;;;;;;;7.01;49.05;100556.24;1685712;84;21594;-56
2021/11/09 10:22:55;;;;;;;1.20;1.07;;;;;;;7.16;48.30;100558.23;1687100;83;21615;-55
2021/11/09 10:25:23;;;;;;;1.55;1.00;;;;;;;7.14;48.54;100561.28;1688723;83;21537;-56
2021/11/09 10:27:52;;;;;;;;;;;;;;;7.33;48.42;100560.16;1684008;84;21836;-56
2021/11/09 10:30:26;;;;;;;1.30;1.20;;;;;;;7.60;47.73;100556.23;1711201;82;20484;-56
2021/11/09 10:32:54;;;;;;;2.00;1.30;;;;;;;8.29;45.78;100557.26;1687828;84;21496;-57
2021/11/09 10:35:21;;;;;;;1.95;1.00;;;;;;;9.24;44.95;100549.19;1684157;84;21643;-57
2021/11/09 10:37:54;;;;;;;1.70;1.20;;;;;;;9.43;43.04;100537.81;1694455;82;21550;-57
2021/11/09 10:40:25;;;;;;;1.20;0.90;;;;;;;10.14;42.03;100550.03;1692418;83;21848;-56
2021/11/09 10:42:59;;;;;;;2.27;1.40;;;;;;;10.44;40.78;100544.42;1707147;83;21611;-57
2021/11/09 10:45:28;;;;;;;4.28;1.85;;;;;;;9.70;41.01;100550.28;1701230;83;21583;-56
2021/11/09 10:48:01;;;;;;;1.57;1.45;;;;;;;8.96;42.47;100551.96;1691742;83;21655;-58
2021/11/09 10:50:35;;;;;;;1.52;1.35;;;;;;;8.52;41.60;100562.94;1702751;83;21530;-56
2021/11/09 10:53:34;;;;;;;2.37;2.10;;;;;;;8.44;41.61;100565.28;1688811;83;22098;-56
2021/11/09 10:55:45;;;;;;;1.60;1.10;;;;;;;9.40;41.04;100565.44;1674662;83;21523;-57
2021/11/09 11:06:35;;;;;;;2.83;1.90;;;;;;;12.78;35.13;100569.80;1689706;83;22022;-57
2021/11/09 11:09:17;;;;;;;1.67;1.42;;;;;;;13.52;33.84;100561.69;1674006;83;21404;-56
2021/11/09 11:11:54;;;;;;;1.87;1.25;;;;;;;12.94;34.59;100558.66;1674206;84;21529;-56
2021/11/09 11:14:27;;;;;;;2.20;1.42;;;;;;;11.92;36.44;100566.70;1686853;84;21542;-56
2021/11/09 11:17:05;;;;;;;1.40;1.22;;;;;;;10.95;36.63;100582.89;1670292;84;21010;-56
2021/11/09 11:19:49;;;;;;;1.15;1.05;;;;;;;10.05;37.46;100586.60;1658100;83;22080;-56
2021/11/09 11:22:19;;;;;;;0.90;0.90;;;;;;;8.89;38.69;100591.05;1680619;83;21129;-63
2021/11/09 11:24:50;;;;;;;1.40;1.15;;;;;;;8.23;40.36;100593.61;1711799;83;21495;-57
2021/11/09 11:27:17;;;;;;;3.50;1.12;;;;;;;7.72;41.46;100593.16;1709901;83;21007;-56
2021/11/09 11:29:44;;;;;;;1.85;1.35;;;;;;;7.44;42.37;100595.75;1681873;83;21495;-56
2021/11/09 11:32:15;;;;;;;1.75;1.50;;;;;;;7.31;42.22;100597.67;1689672;83;22094;-55
2021/11/09 11:34:42;;;;;;;1.17;0.93;;;;;;;7.11;43.16;100593.59;1686586;84;21027;-56
2021/11/09 11:37:12;;;;;;;2.55;1.20;;;;;;;6.78;43.05;100596.18;1687974;83;21577;-55
2021/11/09 11:39:40;;;;;;;1.50;1.35;;;;;;;6.44;43.51;100603.09;1691740;82;21496;-55
2021/11/09 11:42:09;;;;;;;2.35;1.85;;;;;;;6.09;44.53;100607.38;1732534;81;21525;-56
2021/11/09 11:44:38;;;;;;;2.08;1.85;;;;;;;5.78;45.84;100616.30;1666876;83;21828;-56
2021/11/09 11:47:23;;;;;;;2.25;1.57;;;;;;;5.75;45.24;100598.49;1681362;84;21125;-57
2021/11/09 11:49:54;;;;;;;3.60;1.70;;;;;;;5.94;44.67;100610.95;1691072;83;21535;-56
2021/11/09 11:52:33;;;;;;;2.92;2.00;;;;;;;6.12;44.99;100617.36;1667604;84;21807;-57
2021/11/09 11:55:09;;;;;;;2.37;1.85;;;;;;;6.38;44.63;100622.76;1691657;83;21043;-56
2021/11/09 11:57:45;;;;;;;1.75;1.55;;;;;;;6.65;43.68;100619.01;1677834;83;21796;-56
2021/11/09 12:00:51;;;;;;;1.52;1.42;;;;;;;6.75;42.92;100623.23;1688831;83;21547;-56
2021/11/09 12:03:26;;;;;;;2.20;1.50;;;;;;;6.59;43.18;100618.63;1694463;83;21501;-57
2021/11/09 12:05:58;;;;;;;1.30;1.20;;;;;;;6.60;43.72;100631.25;1732516;81;21070;-56
2021/11/09 12:08:42;;;;;;;3.30;1.40;;;;;;;6.56;43.59;100633.48;1731141;81;21441;-55
2021/11/09 12:11:26;;;;;;;1.25;1.10;;;;;;;6.41;43.75;100641.88;1742388;81;21813;-56
2021/11/09 12:14:01;;;;;;;2.50;1.27;;;;;;;6.25;43.45;100644.20;1704607;81;21506;-55
2021/11/09 12:16:43;;;;;;;1.35;1.22;;;;;;;6.31;43.82;100645.89;1739043;81;21591;-56
2021/11/09 12:19:43;;;;;;;1.30;1.20;;;;;;;6.33;43.85;100649.36;1724210;81;21535;-57
2021/11/09 12:22:17;;;;;;;1.70;1.35;;;;;;;6.31;43.54;100644.59;1723014;81;21030;-57
2021/11/09 12:24:58;;;;;;;2.83;1.60;;;;;;;6.01;43.64;100660.52;1738101;81;21772;-56
2021/11/09 12:27:44;;;;;;;1.32;1.22;;;;;;;5.69;43.87;100658.12;1740372;80;21614;-58
2021/11/09 12:30:11;;;;;;;4.05;1.20;;;;;;;5.50;44.75;100671.72;1737806;80;21571;-58
2021/11/09 12:32:41;;;;;;;1.65;1.30;;;;;;;5.43;44.55;100670.01;1724453;81;21547;-57
2021/11/09 12:35:20;;;;;;;2.62;2.00;;;;;;;5.28;45.07;100668.34;1679663;83;21626;-56
2021/11/09 12:38:05;;;;;;;1.82;1.50;;;;;;;5.29;45.60;100673.97;1681287;83;21011;-56
2021/11/09 12:40:48;;;;;;;2.62;1.47;;;;;;;5.27;45.43;100678.33;1738880;80;21582;-56
2021/11/09 12:43:32;;;;;;;2.00;1.60;;;;;;;5.20;45.64;100681.42;1690376;83;21515;-58
2021/11/09 12:46:22;;;;;;;1.92;1.40;;;;;;;5.14;45.77;100685.36;1741202;81;20960;-57
2021/11/09 12:48:59;;;;;;;3.27;1.32;;;;;;;5.16;45.38;100695.76;1734006;80;21596;-59
2021/11/09 12:51:34;;;;;;;2.58;1.45;;;;;;;5.25;45.19;100698.33;1730699;81;21683;-56
2021/11/09 12:54:13;;;;;;;2.30;1.60;;;;;;;5.32;45.28;100695.27;1731633;81;21559;-57
2021/11/09 12:56:43;;;;;;;1.70;1.40;;;;;;;5.41;45.45;100700.01;1736127;81;21502;-57
2021/11/09 12:59:35;;;;;;;2.95;1.70;;;;;;;5.43;45.30;100706.53;1728925;81;21080;-58
2021/11/09 13:02:13;;;;;;;2.35;1.67;;;;;;;5.51;45.40;100715.17;1729736;81;21652;-57
2021/11/09 13:10:04;;;;;;;2.47;1.20;;;;;;;5.63;45.80;100737.72;1729814;81;21507;-56
2021/11/09 13:12:32;;;;;;;1.40;1.30;;;;;;;5.56;45.63;100731.67;1736101;81;21477;-56
2021/11/09 13:15:05;;;;;;;1.10;0.98;;;;;;;5.36;45.78;100739.58;1735989;81;21508;-56
2021/11/09 13:17:44;;;;;;;2.10;1.30;;;;;;;5.24;46.02;100742.25;1735245;81;21680;-65
2021/11/09 13:23:43;;;;;;;1.45;1.27;;;;;;;5.01;46.48;100748.81;1761872;79;23250;-58
2021/11/09 13:26:09;;;;;;;2.40;1.45;;;;;;;4.81;46.87;100757.98;1741682;80;21613;-58
2021/11/09 13:28:36;;;;;;;1.50;1.40;;;;;;;4.58;47.43;100757.58;1748782;80;21772;-58
2021/11/09 13:31:09;;;;;;;2.27;1.52;;;;;;;4.48;47.68;100768.84;1726453;80;21487;-58
2021/11/09 13:33:48;;;;;;;2.02;1.62;;;;;;;4.26;48.44;100766.24;1732919;81;21664;-58
2021/11/09 13:36:19;;;;;;;1.87;1.75;;;;;;;4.08;49.06;100781.83;1741632;80;21095;-59
2021/11/09 13:38:46;;;;;;;2.10;1.65;;;;;;;3.92;49.49;100783.95;1746391;80;21462;-59
2021/11/09 13:41:16;;;;;;;2.72;1.70;;;;;;;3.76;49.79;100777.41;1731481;81;21777;-58
2021/11/09 13:43:51;;;;;;;2.65;1.90;;;;;;;3.72;50.31;100796.92;1733207;80;21470;-59
2021/11/09 13:46:21;;;;;;;1.95;1.62;;;;;;;3.56;50.58;100805.07;1736582;81;21467;-59
2021/11/09 13:48:51;;;;;;;2.10;1.82;;;;;;;3.50;50.39;100810.70;1739677;80;21063;-59
2021/11/09 13:51:25;;;;;;;3.30;1.80;;;;;;;3.34;51.07;100810.18;1744857;80;21629;-59
2021/11/09 13:54:05;;;;;;;2.77;1.65;;;;;;;3.25;51.08;100810.98;1743886;80;21836;-58
2021/11/09 13:56:31;;;;;;;2.05;1.70;;;;;;;3.07;51.06;100820.86;1743324;80;21449;-58
2021/11/09 13:59:05;;;;;;;1.65;1.35;;;;;;;2.93;51.81;100831.13;1747845;80;21596;-58
2021/11/09 14:02:19;;;;;;;3.60;2.20;;;;;;;2.94;51.79;100837.22;1742738;80;21621;-58
2021/11/09 14:17:55;;;;;;;1.70;1.35;;;;;;;2.84;52.93;100858.77;1739240;81;21475;-58
2021/11/09 14:20:24;;;;;;;2.70;1.30;;;;;;;2.76;53.07;100862.61;1731592;80;21694;-58
2021/11/09 14:23:03;;;;;;;;;;;;;;;2.64;53.53;100866.41;1721704;81;21629;-58
2021/11/09 14:25:30;;;;;;;7.92;1.95;;;;;;;2.55;54.00;100880.16;1717059;81;20449;-57
2021/11/09 14:27:57;;;;;;;2.22;1.50;;;;;;;2.49;53.38;100882.27;1722211;80;21602;-57
2021/11/09 14:30:26;;;;;;;3.05;1.75;;;;;;;2.39;53.80;100892.54;1727316;81;21561;-58